HESH/SSH METAR and TAF weather

Enter ICAO airport designator
Station Type Date Time Source
HESH METAR 2020/03/31 22:00 UTC NOAA

HESH 312200Z 26005KT CAVOK 22/17 Q1010 NOSIG


Station Type Date Time Source
HESH Decoded METAR 2020/03/31 22:00 UTC NOAA

Sharm El Sheikhintl, Egypt (HESH) 27-58N 034-23E
Mar 31, 2020 - 06:00 PM EDT / 2020.03.31 2200 UTC
Wind: from the W (260 degrees) at 6 MPH (5 KT):0
Visibility: greater than 7 mile(s):0
Temperature: 71 F (22 C)
Dew Point: 62 F (17 C)
Relative Humidity: 73%
Pressure (altimeter): 29.83 in. Hg (1010 hPa)
ob: HESH 312200Z 26005KT CAVOK 22/17 Q1010 NOSIG
cycle: 22

Station Type Date Time Source
HESH TAF 2020/03/31 18:19 UTC NOAA

TAF HESH 311700Z 3118/0124 17009KT CAVOK
BECMG 3121/3123 32008G20KT 6000 NSC
TEMPO 0106/0115 4000 SA

Example: see airport list